sensor_id;sensor_type;location;lat;lon;timestamp;P1;durP1;ratioP1;P2;durP2;ratioP2
59127;SDS011;44912;52.754;5.994;2024-02-23T00:01:49;4.13;;;1.10;;
59127;SDS011;44912;52.754;5.994;2024-02-23T00:04:16;6.82;;;1.52;;
59127;SDS011;44912;52.754;5.994;2024-02-23T00:06:44;5.93;;;1.40;;
59127;SDS011;44912;52.754;5.994;2024-02-23T00:09:10;4.10;;;1.15;;
59127;SDS011;44912;52.754;5.994;2024-02-23T00:11:35;6.80;;;1.55;;
59127;SDS011;44912;52.754;5.994;2024-02-23T00:14:06;8.52;;;1.85;;
59127;SDS011;44912;52.754;5.994;2024-02-23T00:16:36;5.80;;;1.15;;
59127;SDS011;44912;52.754;5.994;2024-02-23T00:19:07;3.35;;;0.73;;
59127;SDS011;44912;52.754;5.994;2024-02-23T00:21:34;4.60;;;0.77;;
59127;SDS011;44912;52.754;5.994;2024-02-23T00:24:01;1.45;;;0.55;;
59127;SDS011;44912;52.754;5.994;2024-02-23T00:26:26;4.05;;;0.77;;
59127;SDS011;44912;52.754;5.994;2024-02-23T00:28:54;2.28;;;0.60;;
59127;SDS011;44912;52.754;5.994;2024-02-23T00:31:19;5.13;;;1.08;;
59127;SDS011;44912;52.754;5.994;2024-02-23T00:33:45;6.35;;;2.25;;
59127;SDS011;44912;52.754;5.994;2024-02-23T00:36:11;6.38;;;1.02;;
59127;SDS011;44912;52.754;5.994;2024-02-23T00:38:36;4.80;;;1.48;;
59127;SDS011;44912;52.754;5.994;2024-02-23T00:41:02;5.70;;;1.55;;
59127;SDS011;44912;52.754;5.994;2024-02-23T00:43:28;4.10;;;1.10;;
59127;SDS011;44912;52.754;5.994;2024-02-23T00:45:54;4.68;;;1.35;;
59127;SDS011;44912;52.754;5.994;2024-02-23T00:48:20;4.88;;;1.27;;
59127;SDS011;44912;52.754;5.994;2024-02-23T00:50:46;4.18;;;1.40;;
59127;SDS011;44912;52.754;5.994;2024-02-23T00:53:12;8.85;;;1.83;;
59127;SDS011;44912;52.754;5.994;2024-02-23T00:55:37;9.00;;;1.98;;
59127;SDS011;44912;52.754;5.994;2024-02-23T00:58:03;11.18;;;1.70;;
59127;SDS011;44912;52.754;5.994;2024-02-23T01:00:29;14.82;;;2.28;;
59127;SDS011;44912;52.754;5.994;2024-02-23T01:02:54;12.13;;;2.40;;
59127;SDS011;44912;52.754;5.994;2024-02-23T01:05:20;14.93;;;2.20;;
59127;SDS011;44912;52.754;5.994;2024-02-23T01:07:46;17.45;;;2.30;;
59127;SDS011;44912;52.754;5.994;2024-02-23T01:10:11;14.02;;;2.63;;
59127;SDS011;44912;52.754;5.994;2024-02-23T01:12:37;16.52;;;2.97;;
59127;SDS011;44912;52.754;5.994;2024-02-23T01:15:03;12.48;;;3.22;;
59127;SDS011;44912;52.754;5.994;2024-02-23T01:17:28;17.00;;;3.13;;
59127;SDS011;44912;52.754;5.994;2024-02-23T01:19:54;14.15;;;3.05;;
59127;SDS011;44912;52.754;5.994;2024-02-23T01:22:20;15.10;;;2.88;;
59127;SDS011;44912;52.754;5.994;2024-02-23T01:24:45;12.57;;;2.60;;
59127;SDS011;44912;52.754;5.994;2024-02-23T01:27:11;14.73;;;2.17;;
59127;SDS011;44912;52.754;5.994;2024-02-23T01:29:37;13.63;;;2.53;;
59127;SDS011;44912;52.754;5.994;2024-02-23T01:32:02;12.00;;;2.22;;
59127;SDS011;44912;52.754;5.994;2024-02-23T01:34:28;9.48;;;2.17;;
59127;SDS011;44912;52.754;5.994;2024-02-23T01:36:54;10.38;;;2.05;;
59127;SDS011;44912;52.754;5.994;2024-02-23T01:39:20;10.52;;;1.75;;
59127;SDS011;44912;52.754;5.994;2024-02-23T01:41:45;12.82;;;2.50;;
59127;SDS011;44912;52.754;5.994;2024-02-23T01:44:11;11.00;;;2.25;;
59127;SDS011;44912;52.754;5.994;2024-02-23T01:46:37;12.60;;;1.92;;
59127;SDS011;44912;52.754;5.994;2024-02-23T01:49:03;8.13;;;1.80;;
59127;SDS011;44912;52.754;5.994;2024-02-23T01:51:30;10.02;;;1.73;;
59127;SDS011;44912;52.754;5.994;2024-02-23T01:53:56;10.35;;;2.40;;
59127;SDS011;44912;52.754;5.994;2024-02-23T01:56:22;11.60;;;1.98;;
59127;SDS011;44912;52.754;5.994;2024-02-23T01:58:48;13.57;;;2.15;;
59127;SDS011;44912;52.754;5.994;2024-02-23T02:01:14;12.35;;;2.58;;
59127;SDS011;44912;52.754;5.994;2024-02-23T02:03:40;11.07;;;2.17;;
59127;SDS011;44912;52.754;5.994;2024-02-23T02:06:06;11.25;;;2.33;;
59127;SDS011;44912;52.754;5.994;2024-02-23T02:08:36;12.15;;;2.22;;
59127;SDS011;44912;52.754;5.994;2024-02-23T02:11:02;7.55;;;1.70;;
59127;SDS011;44912;52.754;5.994;2024-02-23T02:13:28;11.98;;;2.00;;
59127;SDS011;44912;52.754;5.994;2024-02-23T02:15:54;9.95;;;1.58;;
59127;SDS011;44912;52.754;5.994;2024-02-23T02:18:20;7.88;;;1.75;;
59127;SDS011;44912;52.754;5.994;2024-02-23T02:20:55;11.38;;;2.33;;
59127;SDS011;44912;52.754;5.994;2024-02-23T02:23:22;10.30;;;1.55;;
59127;SDS011;44912;52.754;5.994;2024-02-23T02:25:55;10.60;;;2.00;;
59127;SDS011;44912;52.754;5.994;2024-02-23T02:28:21;9.55;;;1.67;;
59127;SDS011;44912;52.754;5.994;2024-02-23T02:30:48;9.75;;;1.73;;
59127;SDS011;44912;52.754;5.994;2024-02-23T02:33:14;9.20;;;1.35;;
59127;SDS011;44912;52.754;5.994;2024-02-23T02:35:40;12.40;;;2.75;;
59127;SDS011;44912;52.754;5.994;2024-02-23T02:38:06;14.38;;;2.10;;
59127;SDS011;44912;52.754;5.994;2024-02-23T02:40:31;10.70;;;2.15;;
59127;SDS011;44912;52.754;5.994;2024-02-23T02:42:57;9.25;;;1.73;;
59127;SDS011;44912;52.754;5.994;2024-02-23T02:45:23;10.75;;;1.45;;
59127;SDS011;44912;52.754;5.994;2024-02-23T02:47:49;4.53;;;0.95;;
59127;SDS011;44912;52.754;5.994;2024-02-23T02:50:15;10.77;;;1.60;;
59127;SDS011;44912;52.754;5.994;2024-02-23T02:52:41;8.23;;;2.05;;
59127;SDS011;44912;52.754;5.994;2024-02-23T02:55:07;8.73;;;1.40;;
59127;SDS011;44912;52.754;5.994;2024-02-23T02:57:33;9.93;;;1.95;;
59127;SDS011;44912;52.754;5.994;2024-02-23T03:00:00;11.57;;;1.83;;
59127;SDS011;44912;52.754;5.994;2024-02-23T03:02:33;9.38;;;1.60;;
59127;SDS011;44912;52.754;5.994;2024-02-23T03:05:00;9.75;;;1.38;;
59127;SDS011;44912;52.754;5.994;2024-02-23T03:07:25;11.25;;;1.80;;
59127;SDS011;44912;52.754;5.994;2024-02-23T03:09:51;10.90;;;3.10;;
59127;SDS011;44912;52.754;5.994;2024-02-23T03:12:17;8.85;;;1.40;;
59127;SDS011;44912;52.754;5.994;2024-02-23T03:14:43;9.35;;;1.83;;
59127;SDS011;44912;52.754;5.994;2024-02-23T03:17:09;10.98;;;1.92;;
59127;SDS011;44912;52.754;5.994;2024-02-23T03:19:35;10.50;;;1.58;;
59127;SDS011;44912;52.754;5.994;2024-02-23T03:22:01;11.43;;;1.98;;
59127;SDS011;44912;52.754;5.994;2024-02-23T03:24:27;8.77;;;1.60;;
59127;SDS011;44912;52.754;5.994;2024-02-23T03:26:52;10.73;;;1.40;;
59127;SDS011;44912;52.754;5.994;2024-02-23T03:29:18;11.00;;;1.80;;
59127;SDS011;44912;52.754;5.994;2024-02-23T03:31:44;11.07;;;2.03;;
59127;SDS011;44912;52.754;5.994;2024-02-23T03:34:09;12.07;;;2.00;;
59127;SDS011;44912;52.754;5.994;2024-02-23T03:36:36;8.60;;;1.35;;
59127;SDS011;44912;52.754;5.994;2024-02-23T03:39:02;7.40;;;1.67;;
59127;SDS011;44912;52.754;5.994;2024-02-23T03:41:27;10.15;;;1.48;;
59127;SDS011;44912;52.754;5.994;2024-02-23T03:43:53;10.38;;;1.45;;
59127;SDS011;44912;52.754;5.994;2024-02-23T03:46:19;13.10;;;2.72;;
59127;SDS011;44912;52.754;5.994;2024-02-23T03:48:45;13.30;;;1.50;;
59127;SDS011;44912;52.754;5.994;2024-02-23T03:51:11;8.98;;;1.63;;
59127;SDS011;44912;52.754;5.994;2024-02-23T03:53:36;10.15;;;1.52;;
59127;SDS011;44912;52.754;5.994;2024-02-23T03:56:02;11.13;;;1.73;;
59127;SDS011;44912;52.754;5.994;2024-02-23T03:58:28;11.02;;;1.60;;
59127;SDS011;44912;52.754;5.994;2024-02-23T04:00:53;7.25;;;1.58;;
59127;SDS011;44912;52.754;5.994;2024-02-23T04:03:19;8.70;;;1.50;;
59127;SDS011;44912;52.754;5.994;2024-02-23T04:05:45;8.73;;;1.92;;
59127;SDS011;44912;52.754;5.994;2024-02-23T04:08:10;8.48;;;1.52;;
59127;SDS011;44912;52.754;5.994;2024-02-23T04:10:37;7.35;;;1.33;;
59127;SDS011;44912;52.754;5.994;2024-02-23T04:13:03;15.32;;;1.58;;
59127;SDS011;44912;52.754;5.994;2024-02-23T04:15:28;10.73;;;1.70;;
59127;SDS011;44912;52.754;5.994;2024-02-23T04:17:54;6.63;;;1.48;;
59127;SDS011;44912;52.754;5.994;2024-02-23T04:20:20;10.27;;;1.60;;
59127;SDS011;44912;52.754;5.994;2024-02-23T04:22:45;6.53;;;1.40;;
59127;SDS011;44912;52.754;5.994;2024-02-23T04:25:11;8.07;;;1.60;;
59127;SDS011;44912;52.754;5.994;2024-02-23T04:27:37;9.13;;;1.58;;
59127;SDS011;44912;52.754;5.994;2024-02-23T04:30:03;9.88;;;1.67;;
59127;SDS011;44912;52.754;5.994;2024-02-23T04:32:29;7.63;;;1.40;;
59127;SDS011;44912;52.754;5.994;2024-02-23T04:34:55;8.02;;;1.60;;
59127;SDS011;44912;52.754;5.994;2024-02-23T04:37:21;10.63;;;1.92;;
59127;SDS011;44912;52.754;5.994;2024-02-23T04:39:47;11.10;;;1.90;;
59127;SDS011;44912;52.754;5.994;2024-02-23T04:42:12;6.13;;;1.50;;
59127;SDS011;44912;52.754;5.994;2024-02-23T04:44:38;8.32;;;1.52;;
59127;SDS011;44912;52.754;5.994;2024-02-23T04:47:06;10.10;;;1.88;;
59127;SDS011;44912;52.754;5.994;2024-02-23T04:49:32;7.72;;;1.60;;
59127;SDS011;44912;52.754;5.994;2024-02-23T04:51:57;10.90;;;2.08;;
59127;SDS011;44912;52.754;5.994;2024-02-23T04:54:23;9.05;;;2.33;;
59127;SDS011;44912;52.754;5.994;2024-02-23T04:56:49;7.65;;;1.52;;
59127;SDS011;44912;52.754;5.994;2024-02-23T04:59:15;8.23;;;2.67;;
59127;SDS011;44912;52.754;5.994;2024-02-23T05:01:41;14.02;;;3.15;;
59127;SDS011;44912;52.754;5.994;2024-02-23T05:04:07;10.73;;;2.88;;
59127;SDS011;44912;52.754;5.994;2024-02-23T05:06:33;10.55;;;3.40;;
59127;SDS011;44912;52.754;5.994;2024-02-23T05:09:00;11.90;;;4.45;;
59127;SDS011;44912;52.754;5.994;2024-02-23T05:11:26;12.52;;;3.90;;
59127;SDS011;44912;52.754;5.994;2024-02-23T05:13:52;14.30;;;4.63;;
59127;SDS011;44912;52.754;5.994;2024-02-23T05:16:18;12.25;;;4.65;;
59127;SDS011;44912;52.754;5.994;2024-02-23T05:18:44;22.30;;;6.25;;
59127;SDS011;44912;52.754;5.994;2024-02-23T05:21:11;13.68;;;4.90;;
59127;SDS011;44912;52.754;5.994;2024-02-23T05:23:37;11.85;;;4.43;;
59127;SDS011;44912;52.754;5.994;2024-02-23T05:26:03;14.20;;;4.30;;
59127;SDS011;44912;52.754;5.994;2024-02-23T05:28:29;13.27;;;4.20;;
59127;SDS011;44912;52.754;5.994;2024-02-23T05:30:54;14.18;;;4.72;;
59127;SDS011;44912;52.754;5.994;2024-02-23T05:33:21;12.95;;;4.60;;
59127;SDS011;44912;52.754;5.994;2024-02-23T05:35:47;11.05;;;3.83;;
59127;SDS011;44912;52.754;5.994;2024-02-23T05:38:14;10.63;;;4.50;;
59127;SDS011;44912;52.754;5.994;2024-02-23T05:40:40;10.30;;;3.92;;
59127;SDS011;44912;52.754;5.994;2024-02-23T05:43:06;12.27;;;4.70;;
59127;SDS011;44912;52.754;5.994;2024-02-23T05:45:31;13.70;;;4.40;;
59127;SDS011;44912;52.754;5.994;2024-02-23T05:47:57;10.40;;;4.07;;
59127;SDS011;44912;52.754;5.994;2024-02-23T05:50:23;13.05;;;4.15;;
59127;SDS011;44912;52.754;5.994;2024-02-23T05:52:48;11.23;;;4.50;;
59127;SDS011;44912;52.754;5.994;2024-02-23T05:55:14;13.63;;;4.50;;
59127;SDS011;44912;52.754;5.994;2024-02-23T05:57:40;13.07;;;5.07;;
59127;SDS011;44912;52.754;5.994;2024-02-23T06:00:06;13.80;;;4.90;;
59127;SDS011;44912;52.754;5.994;2024-02-23T06:02:32;14.27;;;5.05;;
59127;SDS011;44912;52.754;5.994;2024-02-23T06:04:58;13.85;;;4.97;;
59127;SDS011;44912;52.754;5.994;2024-02-23T06:07:24;19.10;;;5.32;;
59127;SDS011;44912;52.754;5.994;2024-02-23T06:09:57;14.70;;;5.68;;
59127;SDS011;44912;52.754;5.994;2024-02-23T06:12:26;13.00;;;5.07;;
59127;SDS011;44912;52.754;5.994;2024-02-23T06:14:52;14.13;;;5.20;;
59127;SDS011;44912;52.754;5.994;2024-02-23T06:17:18;11.88;;;4.85;;
59127;SDS011;44912;52.754;5.994;2024-02-23T06:19:43;15.27;;;5.32;;
59127;SDS011;44912;52.754;5.994;2024-02-23T06:22:09;11.68;;;4.97;;
59127;SDS011;44912;52.754;5.994;2024-02-23T06:24:38;14.35;;;4.93;;
59127;SDS011;44912;52.754;5.994;2024-02-23T06:27:04;15.15;;;5.03;;
59127;SDS011;44912;52.754;5.994;2024-02-23T06:29:29;12.73;;;5.10;;
59127;SDS011;44912;52.754;5.994;2024-02-23T06:31:55;10.98;;;4.88;;
59127;SDS011;44912;52.754;5.994;2024-02-23T06:34:21;13.65;;;4.85;;
59127;SDS011;44912;52.754;5.994;2024-02-23T06:36:47;15.63;;;4.53;;
59127;SDS011;44912;52.754;5.994;2024-02-23T06:39:12;12.85;;;4.97;;
59127;SDS011;44912;52.754;5.994;2024-02-23T06:41:38;10.80;;;4.82;;
59127;SDS011;44912;52.754;5.994;2024-02-23T06:44:04;15.60;;;5.05;;
59127;SDS011;44912;52.754;5.994;2024-02-23T06:46:30;12.90;;;4.60;;
59127;SDS011;44912;52.754;5.994;2024-02-23T06:48:56;13.57;;;4.35;;
59127;SDS011;44912;52.754;5.994;2024-02-23T06:51:21;10.18;;;4.25;;
59127;SDS011;44912;52.754;5.994;2024-02-23T06:53:47;12.63;;;5.25;;
59127;SDS011;44912;52.754;5.994;2024-02-23T06:56:13;11.43;;;4.00;;
59127;SDS011;44912;52.754;5.994;2024-02-23T06:58:38;9.65;;;4.20;;
59127;SDS011;44912;52.754;5.994;2024-02-23T07:01:04;12.25;;;4.60;;
59127;SDS011;44912;52.754;5.994;2024-02-23T07:03:36;10.18;;;5.07;;
59127;SDS011;44912;52.754;5.994;2024-02-23T07:06:02;9.63;;;4.50;;
59127;SDS011;44912;52.754;5.994;2024-02-23T07:08:28;8.98;;;4.15;;
59127;SDS011;44912;52.754;5.994;2024-02-23T07:10:54;9.18;;;4.95;;
59127;SDS011;44912;52.754;5.994;2024-02-23T07:13:20;10.52;;;4.30;;
59127;SDS011;44912;52.754;5.994;2024-02-23T07:15:46;8.82;;;4.43;;
59127;SDS011;44912;52.754;5.994;2024-02-23T07:18:11;10.10;;;4.85;;
59127;SDS011;44912;52.754;5.994;2024-02-23T07:20:37;9.95;;;4.72;;
59127;SDS011;44912;52.754;5.994;2024-02-23T07:23:03;10.88;;;4.80;;
59127;SDS011;44912;52.754;5.994;2024-02-23T07:25:30;8.90;;;4.60;;
59127;SDS011;44912;52.754;5.994;2024-02-23T07:27:56;13.73;;;4.68;;
59127;SDS011;44912;52.754;5.994;2024-02-23T07:30:21;7.45;;;3.67;;
59127;SDS011;44912;52.754;5.994;2024-02-23T07:32:48;10.15;;;4.10;;
59127;SDS011;44912;52.754;5.994;2024-02-23T07:35:14;10.70;;;3.85;;
59127;SDS011;44912;52.754;5.994;2024-02-23T07:37:40;9.75;;;3.70;;
59127;SDS011;44912;52.754;5.994;2024-02-23T07:40:06;9.25;;;3.33;;
59127;SDS011;44912;52.754;5.994;2024-02-23T07:42:32;10.55;;;3.65;;
59127;SDS011;44912;52.754;5.994;2024-02-23T07:45:00;9.80;;;2.92;;
59127;SDS011;44912;52.754;5.994;2024-02-23T07:47:29;8.93;;;2.78;;
59127;SDS011;44912;52.754;5.994;2024-02-23T07:49:55;8.45;;;3.08;;
59127;SDS011;44912;52.754;5.994;2024-02-23T07:52:21;7.20;;;2.72;;
59127;SDS011;44912;52.754;5.994;2024-02-23T07:54:49;8.07;;;2.47;;
59127;SDS011;44912;52.754;5.994;2024-02-23T07:57:17;9.57;;;2.40;;
59127;SDS011;44912;52.754;5.994;2024-02-23T07:59:43;7.30;;;2.50;;
59127;SDS011;44912;52.754;5.994;2024-02-23T08:02:09;6.47;;;2.20;;
59127;SDS011;44912;52.754;5.994;2024-02-23T08:04:34;6.88;;;2.22;;
59127;SDS011;44912;52.754;5.994;2024-02-23T08:07:00;7.03;;;2.15;;
59127;SDS011;44912;52.754;5.994;2024-02-23T08:09:25;10.40;;;2.50;;
59127;SDS011;44912;52.754;5.994;2024-02-23T08:11:52;7.70;;;2.30;;
59127;SDS011;44912;52.754;5.994;2024-02-23T08:14:17;8.45;;;2.03;;
59127;SDS011;44912;52.754;5.994;2024-02-23T08:16:43;7.15;;;2.22;;
59127;SDS011;44912;52.754;5.994;2024-02-23T08:19:08;5.68;;;2.13;;
59127;SDS011;44912;52.754;5.994;2024-02-23T08:21:34;6.80;;;2.65;;
59127;SDS011;44912;52.754;5.994;2024-02-23T08:24:00;6.85;;;1.92;;
59127;SDS011;44912;52.754;5.994;2024-02-23T08:26:25;11.18;;;2.35;;
59127;SDS011;44912;52.754;5.994;2024-02-23T08:28:51;9.63;;;2.20;;
59127;SDS011;44912;52.754;5.994;2024-02-23T08:31:16;10.02;;;2.25;;
59127;SDS011;44912;52.754;5.994;2024-02-23T08:33:42;7.78;;;2.33;;
59127;SDS011;44912;52.754;5.994;2024-02-23T08:36:08;6.47;;;2.30;;
59127;SDS011;44912;52.754;5.994;2024-02-23T08:38:35;7.25;;;2.25;;
59127;SDS011;44912;52.754;5.994;2024-02-23T08:41:02;10.35;;;2.38;;
59127;SDS011;44912;52.754;5.994;2024-02-23T08:43:27;6.95;;;1.90;;
59127;SDS011;44912;52.754;5.994;2024-02-23T08:45:53;7.35;;;2.15;;
59127;SDS011;44912;52.754;5.994;2024-02-23T08:48:19;7.35;;;1.80;;
59127;SDS011;44912;52.754;5.994;2024-02-23T08:50:44;6.40;;;1.65;;
59127;SDS011;44912;52.754;5.994;2024-02-23T08:53:10;7.22;;;1.90;;
59127;SDS011;44912;52.754;5.994;2024-02-23T08:55:36;7.43;;;1.70;;
59127;SDS011;44912;52.754;5.994;2024-02-23T08:58:02;7.32;;;1.90;;
59127;SDS011;44912;52.754;5.994;2024-02-23T09:00:27;6.90;;;1.55;;
59127;SDS011;44912;52.754;5.994;2024-02-23T09:02:53;7.63;;;1.80;;
59127;SDS011;44912;52.754;5.994;2024-02-23T09:05:19;7.13;;;2.13;;
59127;SDS011;44912;52.754;5.994;2024-02-23T09:07:45;7.20;;;2.17;;
59127;SDS011;44912;52.754;5.994;2024-02-23T09:10:11;7.20;;;1.67;;
59127;SDS011;44912;52.754;5.994;2024-02-23T09:12:37;8.38;;;1.80;;
59127;SDS011;44912;52.754;5.994;2024-02-23T09:15:03;8.88;;;1.90;;
59127;SDS011;44912;52.754;5.994;2024-02-23T09:17:30;9.35;;;1.60;;
59127;SDS011;44912;52.754;5.994;2024-02-23T09:19:55;7.90;;;1.98;;
59127;SDS011;44912;52.754;5.994;2024-02-23T09:22:21;6.18;;;1.70;;
59127;SDS011;44912;52.754;5.994;2024-02-23T09:24:47;8.50;;;1.67;;
59127;SDS011;44912;52.754;5.994;2024-02-23T09:27:13;9.07;;;1.75;;
59127;SDS011;44912;52.754;5.994;2024-02-23T09:29:40;8.20;;;1.40;;
59127;SDS011;44912;52.754;5.994;2024-02-23T09:32:07;8.80;;;1.58;;
59127;SDS011;44912;52.754;5.994;2024-02-23T09:34:33;10.50;;;1.90;;
59127;SDS011;44912;52.754;5.994;2024-02-23T09:36:59;8.07;;;2.25;;
59127;SDS011;44912;52.754;5.994;2024-02-23T09:39:24;5.90;;;1.42;;
59127;SDS011;44912;52.754;5.994;2024-02-23T09:41:53;8.73;;;1.58;;
59127;SDS011;44912;52.754;5.994;2024-02-23T09:44:19;7.15;;;1.85;;
59127;SDS011;44912;52.754;5.994;2024-02-23T09:46:48;6.57;;;1.65;;
59127;SDS011;44912;52.754;5.994;2024-02-23T09:49:17;7.97;;;1.30;;
59127;SDS011;44912;52.754;5.994;2024-02-23T09:51:43;6.25;;;2.00;;
59127;SDS011;44912;52.754;5.994;2024-02-23T09:54:09;5.97;;;1.40;;
59127;SDS011;44912;52.754;5.994;2024-02-23T09:56:35;6.38;;;1.25;;
59127;SDS011;44912;52.754;5.994;2024-02-23T09:59:02;11.23;;;1.80;;
59127;SDS011;44912;52.754;5.994;2024-02-23T10:01:30;6.63;;;1.60;;
59127;SDS011;44912;52.754;5.994;2024-02-23T10:03:58;6.43;;;1.27;;
59127;SDS011;44912;52.754;5.994;2024-02-23T10:06:25;5.47;;;1.50;;
59127;SDS011;44912;52.754;5.994;2024-02-23T10:08:51;6.38;;;1.30;;
59127;SDS011;44912;52.754;5.994;2024-02-23T10:11:20;7.78;;;1.40;;
59127;SDS011;44912;52.754;5.994;2024-02-23T10:13:49;6.60;;;1.33;;
59127;SDS011;44912;52.754;5.994;2024-02-23T10:16:16;6.90;;;1.40;;
59127;SDS011;44912;52.754;5.994;2024-02-23T10:18:45;9.77;;;1.70;;
59127;SDS011;44912;52.754;5.994;2024-02-23T10:21:11;8.75;;;1.48;;
59127;SDS011;44912;52.754;5.994;2024-02-23T10:23:37;7.15;;;1.35;;
59127;SDS011;44912;52.754;5.994;2024-02-23T10:26:04;5.85;;;1.60;;
59127;SDS011;44912;52.754;5.994;2024-02-23T10:28:31;6.35;;;1.65;;
59127;SDS011;44912;52.754;5.994;2024-02-23T10:30:56;5.22;;;1.30;;
59127;SDS011;44912;52.754;5.994;2024-02-23T10:33:22;7.75;;;1.30;;
59127;SDS011;44912;52.754;5.994;2024-02-23T10:35:50;6.85;;;1.73;;
59127;SDS011;44912;52.754;5.994;2024-02-23T10:38:22;8.75;;;1.35;;
59127;SDS011;44912;52.754;5.994;2024-02-23T10:40:48;7.68;;;1.60;;
59127;SDS011;44912;52.754;5.994;2024-02-23T10:43:16;7.47;;;1.80;;
59127;SDS011;44912;52.754;5.994;2024-02-23T10:45:47;8.20;;;1.70;;
59127;SDS011;44912;52.754;5.994;2024-02-23T10:48:14;7.43;;;1.60;;
59127;SDS011;44912;52.754;5.994;2024-02-23T10:50:40;7.35;;;1.50;;
59127;SDS011;44912;52.754;5.994;2024-02-23T10:53:09;8.40;;;1.35;;
59127;SDS011;44912;52.754;5.994;2024-02-23T10:55:36;5.63;;;1.48;;
59127;SDS011;44912;52.754;5.994;2024-02-23T10:58:08;7.13;;;1.30;;
59127;SDS011;44912;52.754;5.994;2024-02-23T11:00:37;6.20;;;1.25;;
59127;SDS011;44912;52.754;5.994;2024-02-23T11:03:03;8.57;;;1.30;;
59127;SDS011;44912;52.754;5.994;2024-02-23T11:05:29;6.72;;;1.20;;
59127;SDS011;44912;52.754;5.994;2024-02-23T11:07:56;6.22;;;1.48;;
59127;SDS011;44912;52.754;5.994;2024-02-23T11:10:22;5.35;;;1.30;;
59127;SDS011;44912;52.754;5.994;2024-02-23T11:12:59;8.60;;;1.60;;
59127;SDS011;44912;52.754;5.994;2024-02-23T11:15:29;7.05;;;1.75;;
59127;SDS011;44912;52.754;5.994;2024-02-23T11:17:55;7.25;;;1.40;;
59127;SDS011;44912;52.754;5.994;2024-02-23T11:20:21;6.57;;;1.40;;
59127;SDS011;44912;52.754;5.994;2024-02-23T11:22:51;7.55;;;1.75;;
59127;SDS011;44912;52.754;5.994;2024-02-23T11:25:18;7.32;;;1.40;;
59127;SDS011;44912;52.754;5.994;2024-02-23T11:27:45;6.15;;;1.60;;
59127;SDS011;44912;52.754;5.994;2024-02-23T11:30:16;4.20;;;1.20;;
59127;SDS011;44912;52.754;5.994;2024-02-23T11:32:46;6.03;;;1.70;;
59127;SDS011;44912;52.754;5.994;2024-02-23T11:35:16;6.40;;;1.63;;
59127;SDS011;44912;52.754;5.994;2024-02-23T11:37:55;6.75;;;1.50;;
59127;SDS011;44912;52.754;5.994;2024-02-23T11:40:24;5.72;;;1.67;;
59127;SDS011;44912;52.754;5.994;2024-02-23T11:42:56;5.25;;;1.33;;
59127;SDS011;44912;52.754;5.994;2024-02-23T11:45:23;5.38;;;1.30;;
59127;SDS011;44912;52.754;5.994;2024-02-23T11:47:50;5.55;;;1.92;;
59127;SDS011;44912;52.754;5.994;2024-02-23T11:50:15;5.00;;;1.60;;
59127;SDS011;44912;52.754;5.994;2024-02-23T11:52:44;6.65;;;1.42;;
59127;SDS011;44912;52.754;5.994;2024-02-23T11:55:10;5.90;;;1.40;;
59127;SDS011;44912;52.754;5.994;2024-02-23T11:57:36;7.18;;;1.70;;
59127;SDS011;44912;52.754;5.994;2024-02-23T12:00:03;5.70;;;1.63;;
59127;SDS011;44912;52.754;5.994;2024-02-23T12:02:32;6.13;;;1.50;;
59127;SDS011;44912;52.754;5.994;2024-02-23T12:04:58;5.47;;;1.52;;
59127;SDS011;44912;52.754;5.994;2024-02-23T12:07:24;4.97;;;1.48;;
59127;SDS011;44912;52.754;5.994;2024-02-23T12:09:51;4.78;;;1.30;;
59127;SDS011;44912;52.754;5.994;2024-02-23T12:12:17;6.60;;;1.80;;
59127;SDS011;44912;52.754;5.994;2024-02-23T12:14:43;4.82;;;1.60;;
59127;SDS011;44912;52.754;5.994;2024-02-23T12:17:09;6.70;;;1.60;;
59127;SDS011;44912;52.754;5.994;2024-02-23T12:19:41;7.22;;;1.92;;
59127;SDS011;44912;52.754;5.994;2024-02-23T12:22:07;7.82;;;1.50;;
59127;SDS011;44912;52.754;5.994;2024-02-23T12:24:34;4.45;;;1.30;;
59127;SDS011;44912;52.754;5.994;2024-02-23T12:26:59;5.20;;;1.70;;
59127;SDS011;44912;52.754;5.994;2024-02-23T12:29:25;4.95;;;1.40;;
59127;SDS011;44912;52.754;5.994;2024-02-23T12:32:01;5.00;;;1.45;;
59127;SDS011;44912;52.754;5.994;2024-02-23T12:34:28;5.18;;;1.50;;
59127;SDS011;44912;52.754;5.994;2024-02-23T12:36:54;3.50;;;1.38;;
59127;SDS011;44912;52.754;5.994;2024-02-23T12:39:20;6.55;;;1.45;;
59127;SDS011;44912;52.754;5.994;2024-02-23T12:41:46;6.65;;;1.65;;
59127;SDS011;44912;52.754;5.994;2024-02-23T12:44:12;4.35;;;1.50;;
59127;SDS011;44912;52.754;5.994;2024-02-23T12:46:37;6.15;;;1.52;;
59127;SDS011;44912;52.754;5.994;2024-02-23T12:49:03;6.63;;;1.65;;
59127;SDS011;44912;52.754;5.994;2024-02-23T12:51:28;6.80;;;1.80;;
59127;SDS011;44912;52.754;5.994;2024-02-23T12:53:54;4.45;;;1.42;;
59127;SDS011;44912;52.754;5.994;2024-02-23T12:56:20;5.45;;;1.40;;
59127;SDS011;44912;52.754;5.994;2024-02-23T12:58:46;8.30;;;1.88;;
59127;SDS011;44912;52.754;5.994;2024-02-23T13:01:12;4.32;;;1.70;;
59127;SDS011;44912;52.754;5.994;2024-02-23T13:03:38;5.78;;;1.77;;
59127;SDS011;44912;52.754;5.994;2024-02-23T13:06:07;5.68;;;1.55;;
59127;SDS011;44912;52.754;5.994;2024-02-23T13:08:33;5.90;;;1.70;;
59127;SDS011;44912;52.754;5.994;2024-02-23T13:10:59;4.40;;;1.40;;
59127;SDS011;44912;52.754;5.994;2024-02-23T13:13:25;5.20;;;1.65;;
59127;SDS011;44912;52.754;5.994;2024-02-23T13:15:51;8.68;;;1.90;;
59127;SDS011;44912;52.754;5.994;2024-02-23T13:18:18;6.50;;;2.00;;
59127;SDS011;44912;52.754;5.994;2024-02-23T13:20:44;7.93;;;1.70;;
59127;SDS011;44912;52.754;5.994;2024-02-23T13:23:10;6.10;;;1.67;;
59127;SDS011;44912;52.754;5.994;2024-02-23T13:25:37;4.97;;;1.42;;
59127;SDS011;44912;52.754;5.994;2024-02-23T13:28:03;8.25;;;1.75;;
59127;SDS011;44912;52.754;5.994;2024-02-23T13:30:30;7.03;;;1.95;;
59127;SDS011;44912;52.754;5.994;2024-02-23T13:32:56;4.95;;;1.70;;
59127;SDS011;44912;52.754;5.994;2024-02-23T13:35:22;6.00;;;1.58;;
59127;SDS011;44912;52.754;5.994;2024-02-23T13:37:48;6.80;;;1.75;;
59127;SDS011;44912;52.754;5.994;2024-02-23T13:40:13;5.88;;;1.60;;
59127;SDS011;44912;52.754;5.994;2024-02-23T13:42:39;6.18;;;1.70;;
59127;SDS011;44912;52.754;5.994;2024-02-23T13:45:06;6.88;;;1.67;;
59127;SDS011;44912;52.754;5.994;2024-02-23T13:47:32;5.82;;;1.80;;
59127;SDS011;44912;52.754;5.994;2024-02-23T13:49:58;7.78;;;1.63;;
59127;SDS011;44912;52.754;5.994;2024-02-23T13:52:24;4.32;;;1.50;;
59127;SDS011;44912;52.754;5.994;2024-02-23T13:54:49;6.55;;;1.90;;
59127;SDS011;44912;52.754;5.994;2024-02-23T13:57:15;7.63;;;1.65;;
59127;SDS011;44912;52.754;5.994;2024-02-23T13:59:40;7.00;;;1.85;;
59127;SDS011;44912;52.754;5.994;2024-02-23T14:02:06;6.60;;;1.90;;
59127;SDS011;44912;52.754;5.994;2024-02-23T14:04:32;6.90;;;1.70;;
59127;SDS011;44912;52.754;5.994;2024-02-23T14:06:58;7.30;;;1.80;;
59127;SDS011;44912;52.754;5.994;2024-02-23T14:09:24;6.50;;;1.77;;
59127;SDS011;44912;52.754;5.994;2024-02-23T14:11:49;5.55;;;1.50;;
59127;SDS011;44912;52.754;5.994;2024-02-23T14:14:15;6.78;;;1.67;;
59127;SDS011;44912;52.754;5.994;2024-02-23T14:16:41;7.95;;;1.60;;
59127;SDS011;44912;52.754;5.994;2024-02-23T14:19:07;5.80;;;1.40;;
59127;SDS011;44912;52.754;5.994;2024-02-23T14:21:32;4.05;;;1.40;;
59127;SDS011;44912;52.754;5.994;2024-02-23T14:24:00;3.63;;;1.30;;
59127;SDS011;44912;52.754;5.994;2024-02-23T14:26:26;6.88;;;1.45;;
59127;SDS011;44912;52.754;5.994;2024-02-23T14:28:52;7.50;;;1.50;;
59127;SDS011;44912;52.754;5.994;2024-02-23T14:31:18;6.65;;;1.20;;
59127;SDS011;44912;52.754;5.994;2024-02-23T14:33:43;7.00;;;1.25;;
59127;SDS011;44912;52.754;5.994;2024-02-23T14:36:09;4.68;;;1.10;;
59127;SDS011;44912;52.754;5.994;2024-02-23T14:38:34;6.80;;;1.20;;